Time;durP1;ratioP1;P1;durP2;ratioP2;P2;SDS_P1;SDS_P2;PMS_P1;PMS_P2;Temp;Humidity;BMP_temperature;BMP_pressure;BME280_temperature;BME280_humidity;BME280_pressure;Samples;Min_cycle;Max_cycle;Signal;HPM_P1;HPM_P2
2024/01/04 00:06:46;;;;;;;1.13;0.70;;;;;;;;;;21186558;28;20211;-72
2024/01/04 00:16:48;;;;;;;1.30;0.87;;;;;;;;;;21191824;28;20321;-72
2024/01/04 00:26:50;;;;;;;1.57;0.83;;;;;;;;;;21183676;28;20613;-72
2024/01/04 00:36:52;;;;;;;1.13;0.70;;;;;;;;;;21197467;28;20205;-72
2024/01/04 00:46:54;;;;;;;2.00;0.80;;;;;;;;;;21232569;28;20642;-72
2024/01/04 00:56:58;;;;;;;2.37;0.90;;;;;;;;;;21177099;28;20215;-72
2024/01/04 01:07:00;;;;;;;2.43;1.00;;;;;;;;;;21174439;28;20205;-73
2024/01/04 01:17:02;;;;;;;1.03;0.87;;;;;;;;;;21132548;28;20665;-72
2024/01/04 01:27:04;;;;;;;5.83;0.73;;;;;;;;;;21088544;28;20654;-72
2024/01/04 01:37:06;;;;;;;0.60;0.60;;;;;;;;;;21087314;28;20290;-72
2024/01/04 01:47:09;;;;;;;1.90;0.80;;;;;;;;;;21086565;28;20287;-72
2024/01/04 01:57:11;;;;;;;1.87;0.80;;;;;;;;;;21086027;28;20654;-72
2024/01/04 02:07:13;;;;;;;2.50;0.80;;;;;;;;;;21084168;28;20204;-71
2024/01/04 02:17:15;;;;;;;1.57;0.80;;;;;;;;;;21084281;28;20240;-71
2024/01/04 02:27:18;;;;;;;3.20;1.00;;;;;;;;;;21083351;28;20651;-70
2024/01/04 02:37:20;;;;;;;1.30;0.80;;;;;;;;;;21083194;28;20703;-71
2024/01/04 02:47:22;;;;;;;1.97;0.80;;;;;;;;;;21082317;28;20723;-71
2024/01/04 02:57:24;;;;;;;3.60;1.20;;;;;;;;;;21081821;28;20595;-71
2024/01/04 03:07:26;;;;;;;5.63;3.70;;;;;;;;;;21080794;28;20631;-71
2024/01/04 03:17:28;;;;;;;2.37;1.33;;;;;;;;;;21079458;28;20236;-70
2024/01/04 03:27:30;;;;;;;1.83;0.90;;;;;;;;;;21080071;28;20263;-71
2024/01/04 03:37:32;;;;;;;2.70;1.10;;;;;;;;;;21079020;28;20240;-71
2024/01/04 03:47:35;;;;;;;1.37;0.90;;;;;;;;;;21078732;28;20290;-71
2024/01/04 03:57:37;;;;;;;3.47;1.20;;;;;;;;;;21078036;28;20320;-72
2024/01/04 04:07:39;;;;;;;1.63;1.00;;;;;;;;;;21076949;28;20304;-71
2024/01/04 04:17:41;;;;;;;2.90;2.07;;;;;;;;;;21077416;28;20322;-71
2024/01/04 04:27:44;;;;;;;3.10;1.47;;;;;;;;;;21084222;28;20213;-71
2024/01/04 04:37:46;;;;;;;2.80;1.10;;;;;;;;;;21092305;28;20321;-71
2024/01/04 04:47:48;;;;;;;1.17;0.70;;;;;;;;;;21091578;28;20563;-71
2024/01/04 04:57:50;;;;;;;1.80;1.30;;;;;;;;;;21090696;28;20239;-71
2024/01/04 05:07:52;;;;;;;2.03;1.50;;;;;;;;;;21090441;28;20307;-72
2024/01/04 05:17:54;;;;;;;2.30;0.80;;;;;;;;;;21089287;28;20324;-71
2024/01/04 05:27:57;;;;;;;1.93;1.27;;;;;;;;;;21110324;28;20232;-72
2024/01/04 05:37:59;;;;;;;3.73;1.70;;;;;;;;;;21123788;28;20247;-72
2024/01/04 05:48:01;;;;;;;2.77;0.77;;;;;;;;;;21100936;28;20305;-72
2024/01/04 05:58:03;;;;;;;1.80;1.00;;;;;;;;;;21114705;28;20227;-72
2024/01/04 06:08:06;;;;;;;2.10;1.30;;;;;;;;;;21103196;28;20213;-72
2024/01/04 06:18:08;;;;;;;1.37;0.90;;;;;;;;;;21081956;28;20319;-71
2024/01/04 06:28:10;;;;;;;1.37;0.80;;;;;;;;;;21083066;28;20300;-71
2024/01/04 06:38:13;;;;;;;2.50;0.80;;;;;;;;;;21082619;28;20247;-72
2024/01/04 06:48:15;;;;;;;1.20;1.00;;;;;;;;;;21081275;28;20205;-72
2024/01/04 06:58:17;;;;;;;2.63;1.17;;;;;;;;;;21080728;28;20243;-71
2024/01/04 07:08:19;;;;;;;3.50;0.90;;;;;;;;;;21080559;28;20218;-72
2024/01/04 07:18:21;;;;;;;3.13;0.80;;;;;;;;;;21078460;28;20227;-72
2024/01/04 07:28:24;;;;;;;2.20;0.90;;;;;;;;;;21098249;28;20206;-72
2024/01/04 07:38:26;;;;;;;3.37;0.80;;;;;;;;;;21080781;28;20244;-73
2024/01/04 07:48:29;;;;;;;1.40;0.80;;;9.70;99.90;;;;;;21080433;28;20296;-71
2024/01/04 07:58:31;;;;;;;1.53;0.70;;;;;;;;;;21139204;28;20323;-72
2024/01/04 08:08:33;;;;;;;0.70;0.70;;;;;;;;;;21103743;28;20204;-72
2024/01/04 08:18:36;;;;;;;1.23;0.70;;;;;;;;;;21107247;28;20231;-71
2024/01/04 08:28:39;;;;;;;0.80;0.70;;;;;;;;;;21102339;28;20572;-71
2024/01/04 08:38:41;;;;;;;1.50;0.80;;;;;;;;;;21092352;28;20598;-72
2024/01/04 08:48:43;;;;;;;0.70;0.70;;;;;;;;;;21113178;28;20205;-72
2024/01/04 08:58:45;;;;;;;1.90;0.90;;;;;;;;;;21090575;28;20235;-72
2024/01/04 09:08:48;;;;;;;0.83;0.60;;;;;;;;;;21090242;28;20652;-72
2024/01/04 09:18:51;;;;;;;0.77;0.77;;;;;;;;;;21088546;28;20327;-71
2024/01/04 09:28:53;;;;;;;1.47;1.00;;;;;;;;;;21088742;28;20207;-72
2024/01/04 09:38:57;;;;;;;2.83;0.90;;;10.80;99.90;;;;;;21087753;28;20599;-72
2024/01/04 09:49:00;;;;;;;1.03;0.80;;;;;;;;;;21087161;28;20210;-72
2024/01/04 09:59:03;;;;;;;0.90;0.73;;;;;;;;;;21085729;28;20268;-72
2024/01/04 10:09:17;;;;;;;1.73;1.10;;;10.70;99.90;;;;;;21085315;28;20559;-71
2024/01/04 10:19:19;;;;;;;1.73;0.80;;;;;;;;;;21084016;28;20652;-72
2024/01/04 10:29:22;;;;;;;2.23;1.13;;;;;;;;;;21082419;28;20216;-72
2024/01/04 10:39:24;;;;;;;1.70;1.03;;;;;;;;;;21082857;28;20244;-71
2024/01/04 10:49:26;;;;;;;2.50;1.20;;;10.10;99.90;;;;;;21081813;28;20294;-72
2024/01/04 10:59:29;;;;;;;1.33;0.93;;;10.10;99.90;;;;;;21081040;28;20240;-71
2024/01/04 11:09:34;;;;;;;5.23;2.80;;;10.50;99.90;;;;;;21081106;28;20232;-72
2024/01/04 11:19:36;;;;;;;5.30;1.67;;;;;;;;;;21079537;28;20233;-71
2024/01/04 11:29:39;;;;;;;5.83;1.77;;;;;;;;;;21079200;28;20249;-72
2024/01/04 11:40:03;;;;;;;3.63;1.63;;;10.10;99.90;;;;;;21078533;28;20242;-71
2024/01/04 11:50:22;;;;;;;5.10;2.03;;;10.10;99.90;;;;;;21078238;28;20204;-72
2024/01/04 12:00:35;;;;;;;6.60;2.27;;;10.10;99.90;;;;;;21078336;28;20236;-72
2024/01/04 12:10:37;;;;;;;5.93;1.30;;;;;;;;;;21125018;28;20235;-70
2024/01/04 12:20:39;;;;;;;5.87;1.40;;;;;;;;;;21161299;28;20769;-72
2024/01/04 12:30:42;;;;;;;6.10;1.33;;;;;;;;;;21142276;28;20205;-74
2024/01/04 12:40:48;;;;;;;5.63;1.70;;;;;;;;;;21076957;28;20707;-70
2024/01/04 12:50:50;;;;;;;6.30;1.53;;;;;;;;;;21121974;28;20206;-71
2024/01/04 13:00:52;;;;;;;7.13;2.00;;;;;;;;;;21111856;28;20270;-70
2024/01/04 13:10:55;;;;;;;12.17;1.90;;;;;;;;;;21082958;28;20240;-69
2024/01/04 13:20:58;;;;;;;9.10;2.20;;;;;;;;;;21134422;28;20231;-69
2024/01/04 13:31:00;;;;;;;9.30;1.80;;;;;;;;;;21172919;28;20655;-69
2024/01/04 13:41:03;;;;;;;10.97;6.17;;;;;;;;;;21141282;28;20245;-68
2024/01/04 13:51:06;;;;;;;7.53;2.77;;;;;;;;;;21086738;28;20215;-70
2024/01/04 14:01:09;;;;;;;7.13;1.57;;;;;;;;;;21085091;28;20244;-70
2024/01/04 14:11:12;;;;;;;5.17;1.73;;;;;;;;;;21099060;28;20265;-68
2024/01/04 14:21:14;;;;;;;5.17;1.40;;;;;;;;;;21145228;28;20275;-68
2024/01/04 14:31:16;;;;;;;5.57;1.43;;;;;;;;;;21121470;28;20201;-70
2024/01/04 14:41:22;;;;;;;3.83;1.60;;;;;;;;;;21082695;28;20620;-71
2024/01/04 14:51:26;;;;;;;5.63;1.50;;;;;;;;;;21082030;28;20219;-71
2024/01/04 15:01:28;;;;;;;5.73;2.37;;;;;;;;;;21077953;28;20228;-70
2024/01/04 15:11:31;;;;;;;5.07;1.60;;;;;;;;;;21079743;28;20208;-69
2024/01/04 15:21:33;;;;;;;10.90;5.43;;;;;;;;;;21082300;28;20685;-70
2024/01/04 15:31:36;;;;;;;5.80;2.00;;;;;;;;;;21079183;28;20577;-71
2024/01/04 15:41:38;;;;;;;5.93;2.20;;;;;;;;;;21078485;28;20233;-70
2024/01/04 15:51:43;;;;;;;5.60;2.00;;;;;;;;;;21078573;28;20206;-69
2024/01/04 16:01:48;;;;;;;5.90;1.80;;;;;;;;;;21080239;28;20233;-70
2024/01/04 16:11:50;;;;;;;4.87;1.90;;;;;;;;;;21114342;28;20262;-70
2024/01/04 16:21:53;;;;;;;5.90;1.57;;;;;;;;;;21096578;28;20226;-70
2024/01/04 16:31:55;;;;;;;6.33;2.40;;;;;;;;;;21176917;28;20405;-71
2024/01/04 16:41:57;;;;;;;6.13;2.40;;;;;;;;;;21176149;28;20232;-70
2024/01/04 16:52:00;;;;;;;6.47;2.40;;;;;;;;;;21175878;28;20206;-73
2024/01/04 17:02:05;;;;;;;9.03;2.67;;;9.50;97.00;;;;;;21161255;28;20263;-71
2024/01/04 17:12:07;;;;;;;6.57;2.10;;;;;;;;;;21135336;28;20217;-68
2024/01/04 17:22:10;;;;;;;6.70;1.87;;;;;;;;;;21089179;28;20232;-69
2024/01/04 17:32:12;;;;;;;10.77;4.10;;;;;;;;;;21087459;28;20207;-71
2024/01/04 17:42:17;;;;;;;9.87;3.60;;;;;;;;;;21103099;28;20334;-70
2024/01/04 17:52:19;;;;;;;9.87;3.90;;;;;;;;;;21103448;28;20267;-69
2024/01/04 18:02:21;;;;;;;11.13;3.70;;;;;;;;;;21129665;28;20321;-68
2024/01/04 18:12:24;;;;;;;10.87;4.53;;;;;;;;;;21121074;28;20207;-68
2024/01/04 18:22:27;;;;;;;8.20;3.40;;;;;;;;;;21122409;28;20249;-71
2024/01/04 18:32:29;;;;;;;12.33;3.97;;;;;;;;;;21126319;28;20662;-72
2024/01/04 18:42:31;;;;;;;7.63;3.17;;;;;;;;;;21118180;28;20234;-70
2024/01/04 18:52:33;;;;;;;8.77;3.10;;;;;;;;;;21116037;28;20227;-70
2024/01/04 19:12:13;;;;;;;13.80;3.50;;;;;;;;;;21067949;28;20932;-68
2024/01/04 19:22:15;;;;;;;11.50;4.10;;;;;;;;;;21067463;28;20212;-68
2024/01/04 19:32:17;;;;;;;10.33;3.33;;;;;;;;;;21043420;28;20684;-69
2024/01/04 19:42:20;;;;;;;10.07;3.10;;;;;;;;;;20913594;28;20260;-70
2024/01/04 19:52:25;;;;;;;7.60;2.77;;;;;;;;;;20898948;28;20213;-70
2024/01/04 20:02:29;;;;;;;10.30;2.93;;;;;;;;;;20897564;28;20215;-69
2024/01/04 20:12:31;;;;;;;11.10;2.87;;;;;;;;;;20897156;28;20228;-70
2024/01/04 20:22:33;;;;;;;8.73;2.70;;;;;;;;;;20846905;28;20607;-71
2024/01/04 20:32:36;;;;;;;9.43;2.27;;;;;;;;;;20840433;28;20293;-70
2024/01/04 20:42:38;;;;;;;10.47;3.30;;;;;;;;;;20839685;28;20230;-70
2024/01/04 20:52:40;;;;;;;7.00;2.67;;;;;;;;;;20839378;28;20206;-71
2024/01/04 21:02:42;;;;;;;12.10;2.63;;;;;;;;;;20838020;28;20265;-71
2024/01/04 21:12:45;;;;;;;8.63;2.90;;;;;;;;;;20837418;28;20676;-71
2024/01/04 21:22:47;;;;;;;11.60;2.80;;;;;;;;;;20862256;28;20232;-70
2024/01/04 21:32:49;;;;;;;9.37;2.20;;;;;;;;;;20916581;28;20241;-69
2024/01/04 21:42:52;;;;;;;12.10;2.77;;;;;;;;;;20915780;28;20593;-71
2024/01/04 21:52:54;;;;;;;6.93;2.13;;;;;;;;;;20917353;28;20214;-70
2024/01/04 22:02:56;;;;;;;10.30;2.47;;;;;;;;;;20929783;28;20249;-71
2024/01/04 22:12:58;;;;;;;13.77;3.00;;;;;;;;;;20950328;28;20280;-70
2024/01/04 22:23:01;;;;;;;5.40;2.10;;;;;;;;;;20959754;28;20240;-70
2024/01/04 22:33:03;;;;;;;8.80;2.10;;;;;;;;;;20950363;28;20238;-70
2024/01/04 22:43:05;;;;;;;9.03;2.70;;;;;;;;;;20954675;28;20570;-71
2024/01/04 22:53:07;;;;;;;7.07;2.70;;;;;;;;;;20958478;28;20291;-70
2024/01/04 23:03:10;;;;;;;8.63;2.83;;;;;;;;;;20948746;28;20243;-71
2024/01/04 23:13:12;;;;;;;7.17;2.70;;;;;;;;;;20954084;28;20204;-70
2024/01/04 23:23:15;;;;;;;10.87;3.43;;;;;;;;;;20955913;28;20328;-70
2024/01/04 23:33:17;;;;;;;11.63;3.30;;;;;;;;;;20948935;28;20299;-70
2024/01/04 23:43:37;;;;;;;9.10;3.57;;;;;;;;;;20951061;28;20240;-72
2024/01/04 23:53:39;;;;;;;10.33;3.73;;;;;;;;;;20960180;28;20213;-71
